createdAt,value
2022-08-17T00:00:01.926Z,0
2022-08-17T00:05:02.018Z,0
2022-08-17T00:10:02.084Z,0
2022-08-17T00:15:02.067Z,0
2022-08-17T00:20:02.064Z,0
2022-08-17T00:25:02.477Z,0
2022-08-17T00:30:02.304Z,0
2022-08-17T00:35:02.047Z,0
2022-08-17T00:40:02.096Z,0
2022-08-17T00:45:02.531Z,0
2022-08-17T00:50:07.949Z,0
2022-08-17T00:55:02.207Z,0
2022-08-17T01:00:03.720Z,0
2022-08-17T01:05:02.075Z,0
2022-08-17T01:10:01.978Z,0
2022-08-17T01:15:01.997Z,0
2022-08-17T01:20:02.143Z,0
2022-08-17T01:25:02.065Z,0
2022-08-17T01:30:02.023Z,0
2022-08-17T01:35:02.189Z,0
2022-08-17T01:40:02.113Z,0
2022-08-17T01:45:02.041Z,0
2022-08-17T01:50:07.986Z,0
2022-08-17T01:55:02.136Z,0
2022-08-17T02:00:02.037Z,0
2022-08-17T02:05:02.287Z,0
2022-08-17T02:10:02.355Z,0
2022-08-17T02:15:02.490Z,0
2022-08-17T02:20:04.228Z,0
2022-08-17T02:25:02.670Z,0
2022-08-17T02:30:02.058Z,0
2022-08-17T02:35:02.183Z,0
2022-08-17T02:40:02.241Z,0
2022-08-17T02:45:02.315Z,0
2022-08-17T02:50:02.059Z,0
2022-08-17T02:55:02.305Z,0
2022-08-17T03:00:02.288Z,0
2022-08-17T03:05:02.379Z,0
2022-08-17T03:10:02.128Z,0
2022-08-17T03:15:03.116Z,0
2022-08-17T03:20:02.088Z,0
2022-08-17T03:25:02.170Z,0
2022-08-17T03:30:02.149Z,0
2022-08-17T03:35:02.088Z,0
2022-08-17T03:40:02.171Z,0
2022-08-17T03:45:02.133Z,0
2022-08-17T03:50:08.005Z,0
2022-08-17T03:55:02.126Z,0.13455026455026453
2022-08-17T04:00:02.254Z,0.39926984126984133
2022-08-17T04:05:02.249Z,0.4212169312169312
2022-08-17T04:10:02.962Z,0.6668042328042327
2022-08-17T04:15:02.173Z,0.8765714285714287
2022-08-17T04:20:02.150Z,0.9417248677248677
2022-08-17T04:25:02.340Z,0.8992804232804232
2022-08-17T04:30:02.415Z,0.8908042328042327
2022-08-17T04:35:02.147Z,0.9384761904761906
2022-08-17T04:40:04.244Z,0.7239470899470899
2022-08-17T04:45:02.138Z,0.602021164021164
2022-08-17T04:50:07.624Z,0.5345291005291005
2022-08-17T04:55:02.219Z,0.7862328042328044
2022-08-17T05:00:02.201Z,1.5328783068783067
2022-08-17T05:05:02.229Z,2.20426455026455
2022-08-17T05:10:02.201Z,2.81410582010582
2022-08-17T05:15:02.354Z,3.390804232804233
2022-08-17T05:20:12.014Z,3.6532169312169307
2022-08-17T05:25:02.768Z,3.888126984126984
2022-08-17T05:30:02.368Z,4.127470899470899
2022-08-17T05:35:02.441Z,4.457058201058201
2022-08-17T05:40:02.374Z,4.899492063492064
2022-08-17T05:45:02.479Z,5.404878306878307
2022-08-17T05:50:02.419Z,5.983650793650794
2022-08-17T05:55:02.454Z,6.654793650793652
2022-08-17T06:00:02.222Z,7.270031746031746
2022-08-17T06:05:02.285Z,8.436328042328043
2022-08-17T06:10:02.443Z,9.457714285714285
2022-08-17T06:15:02.406Z,8.890031746031747
2022-08-17T06:20:08.529Z,11.281089947089948
2022-08-17T06:25:02.503Z,13.653724867724867
2022-08-17T06:30:02.474Z,15.277238095238097
2022-08-17T06:35:02.291Z,16.931037037037036
2022-08-17T06:40:02.380Z,18.844116402116402
2022-08-17T06:45:02.541Z,21.098232804232804
2022-08-17T06:50:03.570Z,22.902285714285714
2022-08-17T06:55:02.369Z,24.579386243386242
2022-08-17T07:00:02.370Z,26.15519576719577
2022-08-17T07:05:02.299Z,27.79043386243386
2022-08-17T07:10:02.316Z,29.503301587301582
2022-08-17T07:15:02.283Z,31.192063492063493
2022-08-17T07:20:02.421Z,33.363015873015875
2022-08-17T07:25:02.307Z,34.96120634920635
2022-08-17T07:30:04.642Z,36.657566137566135
2022-08-17T07:35:02.399Z,37.62048677248677
2022-08-17T07:40:15.684Z,36.1381164021164
2022-08-17T07:45:02.336Z,39.00610582010582
2022-08-17T07:50:02.293Z,39.06594708994709
2022-08-17T07:55:03.534Z,40.502
2022-08-17T08:00:03.126Z,41.818899470899474
2022-08-17T08:05:02.594Z,34.89336507936508
2022-08-17T08:10:02.388Z,45.839873015873025
2022-08-17T08:15:02.552Z,49.61986243386244
2022-08-17T08:20:19.757Z,50.446751322751325
2022-08-17T08:25:02.393Z,47.66573544973545
2022-08-17T08:30:02.491Z,51.68016931216931
2022-08-17T08:35:03.953Z,51.65137566137567
2022-08-17T08:40:02.415Z,51.344095238095235
2022-08-17T08:45:04.293Z,56.074899470899474
2022-08-17T08:50:04.264Z,53.36051851851852
2022-08-17T08:55:02.467Z,53.006074074074085
2022-08-17T09:00:02.393Z,56.312708994709006
2022-08-17T09:05:15.131Z,57.30987301587302
2022-08-17T09:10:02.399Z,54.114232804232806
2022-08-17T09:15:02.431Z,54.11655026455027
2022-08-17T09:20:04.177Z,58.65556613756614
2022-08-17T09:25:02.594Z,62.09904761904762
2022-08-17T09:30:02.396Z,60.175365079365086
2022-08-17T09:35:02.544Z,61.544624338624345
2022-08-17T09:40:02.660Z,62.97259259259259
2022-08-17T09:45:02.572Z,62.45407407407407
2022-08-17T09:50:03.764Z,62.85059259259259
2022-08-17T09:55:02.587Z,64.8084126984127
2022-08-17T10:00:02.471Z,67.53660317460317
2022-08-17T10:05:02.528Z,67.03899470899472
2022-08-17T10:10:02.535Z,68.03960846560847
2022-08-17T10:15:05.087Z,69.4655873015873
2022-08-17T10:20:02.499Z,69.80756613756614
2022-08-17T10:25:23.380Z,68.21028571428572
2022-08-17T10:30:02.615Z,71.44258201058202
2022-08-17T10:35:02.476Z,70.90439153439154
2022-08-17T10:40:02.615Z,72.16098412698413
2022-08-17T10:45:02.665Z,71.68022222222223
2022-08-17T10:50:10.222Z,70.75847619047619
2022-08-17T10:55:02.501Z,70.75221164021164
2022-08-17T11:00:02.586Z,68.81842328042327
2022-08-17T11:05:02.782Z,64.98219047619047
2022-08-17T11:10:02.568Z,68.70287830687832
2022-08-17T11:15:02.526Z,68.04167195767195
2022-08-17T11:20:02.675Z,73.06838095238096
2022-08-17T11:25:02.498Z,72.22725925925927
2022-08-17T11:30:03.064Z,74.87035978835979
2022-08-17T11:35:02.706Z,72.72101587301589
2022-08-17T11:40:02.583Z,75.90840211640212
2022-08-17T11:45:02.558Z,74.51992592592592
2022-08-17T11:50:05.224Z,72.02973544973545
2022-08-17T11:55:17.894Z,68.30911111111111
2022-08-17T12:00:02.547Z,65.4211746031746
2022-08-17T12:22:42.449Z,68.48850793650794
2022-08-17T12:25:02.573Z,68.86368253968254
2022-08-17T12:30:02.766Z,69.41124867724868
2022-08-17T12:35:02.709Z,56.4385291005291
2022-08-17T12:40:02.631Z,37.05519576719576
2022-08-17T12:45:02.591Z,37.5708253968254
2022-08-17T12:50:02.823Z,48.67718518518519
2022-08-17T12:55:02.691Z,50.60726984126984
2022-08-17T13:00:02.606Z,45.8225291005291
2022-08-17T13:05:02.741Z,42.023365079365085
2022-08-17T13:10:02.594Z,38.361333333333334
2022-08-17T13:15:02.632Z,47.30893121693122
2022-08-17T13:20:02.793Z,55.54768253968254
2022-08-17T13:25:02.579Z,64.47398941798942
2022-08-17T13:30:02.626Z,63.44767195767196
2022-08-17T13:35:13.418Z,59.77685714285714
2022-08-17T13:40:02.749Z,42.04608465608465
2022-08-17T13:45:02.687Z,40.8194708994709
2022-08-17T13:50:02.731Z,43.587555555555554
2022-08-17T13:55:07.704Z,39.90421164021164
2022-08-17T14:00:01.518Z,35.97684656084656
2022-08-17T14:05:01.606Z,45.99349206349206
2022-08-17T14:10:01.498Z,31.661343915343913
2022-08-17T14:15:01.463Z,23.131449735449735
2022-08-17T14:20:01.678Z,22.734698412698414
2022-08-17T14:25:01.492Z,25.6044126984127
2022-08-17T14:30:01.617Z,25.11815873015873
2022-08-17T14:35:01.654Z,28.802772486772486
2022-08-17T14:40:01.651Z,34.25806349206349
2022-08-17T14:45:01.520Z,33.21604232804233
2022-08-17T14:50:01.992Z,25.83605291005291
2022-08-17T14:55:01.608Z,25.235830687830692
2022-08-17T15:00:06.574Z,36.01404232804233
2022-08-17T15:05:01.574Z,45.93447619047619
2022-08-17T15:10:01.994Z,36.776761904761905
2022-08-17T15:15:01.515Z,33.487978835978836
2022-08-17T15:20:01.503Z,30.20666666666667
2022-08-17T15:25:01.771Z,30.92471957671958
2022-08-17T15:30:01.488Z,21.4454708994709
2022-08-17T15:35:01.553Z,21.650296296296297
2022-08-17T15:40:01.781Z,20.62688888888889
2022-08-17T15:45:01.560Z,17.047037037037036
2022-08-17T15:50:01.592Z,21.520455026455025
2022-08-17T15:55:01.701Z,9.932190476190476
2022-08-17T16:00:01.551Z,8.675724867724869
2022-08-17T16:05:01.685Z,9.06120634920635
2022-08-17T16:10:01.590Z,11.039904761904761
2022-08-17T16:15:01.568Z,15.91484656084656
2022-08-17T16:20:01.658Z,12.92446560846561
2022-08-17T16:25:01.629Z,22.113523809523812
2022-08-17T16:30:01.780Z,15.91495238095238
2022-08-17T16:35:01.597Z,12.89357671957672
2022-08-17T16:40:01.689Z,16.899809523809523
2022-08-17T16:45:01.690Z,10.80699470899471
2022-08-17T16:50:01.603Z,18.08442328042328
2022-08-17T16:55:01.612Z,19.46537566137566
2022-08-17T17:00:01.612Z,17.533449735449736
2022-08-17T17:05:01.795Z,15.357566137566137
2022-08-17T17:10:01.666Z,13.418243386243386
2022-08-17T17:15:01.642Z,11.83299470899471
2022-08-17T17:20:01.750Z,7.971481481481482
2022-08-17T17:25:01.629Z,7.9817989417989414
2022-08-17T17:30:01.642Z,5.205206349206349
2022-08-17T17:35:01.652Z,1.9853862433862435
2022-08-17T17:40:01.905Z,1.7306984126984128
2022-08-17T17:45:01.664Z,1.8340105820105819
2022-08-17T17:50:01.706Z,1.6347195767195768
2022-08-17T17:55:03.151Z,1.130793650793651
2022-08-17T18:00:01.761Z,0.8151216931216931
2022-08-17T18:05:01.833Z,0.49686772486772485
2022-08-17T18:10:02.015Z,0.27154497354497353
2022-08-17T18:15:01.697Z,0.3562645502645503
2022-08-17T18:20:01.637Z,0.17819047619047618
2022-08-17T18:25:01.698Z,0
2022-08-17T18:30:05.826Z,0
2022-08-17T18:35:01.778Z,0
2022-08-17T18:40:01.844Z,0
2022-08-17T18:45:02.025Z,0
2022-08-17T18:50:01.964Z,0
2022-08-17T18:55:01.736Z,0
2022-08-17T19:00:01.879Z,0
2022-08-17T19:05:01.803Z,0
2022-08-17T19:10:01.771Z,0
2022-08-17T19:15:01.702Z,0
2022-08-17T19:20:02.178Z,0
2022-08-17T19:25:02.862Z,0
2022-08-17T19:30:07.096Z,0
2022-08-17T19:35:01.823Z,0
2022-08-17T19:40:01.977Z,0
2022-08-17T19:45:01.827Z,0
2022-08-17T19:50:01.773Z,0
2022-08-17T19:55:01.952Z,0
2022-08-17T20:00:01.756Z,0
2022-08-17T20:05:01.965Z,0
2022-08-17T20:10:01.795Z,0
2022-08-17T20:15:02.024Z,0
2022-08-17T20:20:01.776Z,0
2022-08-17T20:25:01.788Z,0
2022-08-17T20:30:01.944Z,0
2022-08-17T20:35:01.805Z,0
2022-08-17T20:40:01.844Z,0
2022-08-17T20:45:01.812Z,0
2022-08-17T20:50:01.998Z,0
2022-08-17T20:55:02.130Z,0
2022-08-17T21:00:01.894Z,0
2022-08-17T21:05:01.859Z,0
2022-08-17T21:10:01.837Z,0
2022-08-17T21:15:01.983Z,0
2022-08-17T21:20:11.712Z,0
2022-08-17T21:25:02.037Z,0
2022-08-17T21:30:01.862Z,0
2022-08-17T21:35:01.819Z,0
2022-08-17T21:40:02.221Z,0
2022-08-17T21:45:02.037Z,0
2022-08-17T21:50:02.133Z,0
2022-08-17T21:55:01.873Z,0
2022-08-17T22:00:01.981Z,0
2022-08-17T22:05:01.883Z,0
2022-08-17T22:10:01.927Z,0
2022-08-17T22:15:01.974Z,0
2022-08-17T22:20:02.114Z,0
2022-08-17T22:25:01.915Z,0
2022-08-17T22:30:01.873Z,0
2022-08-17T22:35:01.962Z,0
2022-08-17T22:40:02.601Z,0
2022-08-17T22:45:01.925Z,0
2022-08-17T22:50:01.904Z,0
2022-08-17T22:55:02.093Z,0
2022-08-17T23:00:02.014Z,0
2022-08-17T23:05:01.910Z,0
2022-08-17T23:10:01.884Z,0
2022-08-17T23:15:02.100Z,0
2022-08-17T23:20:01.955Z,0
2022-08-17T23:25:02.090Z,0
2022-08-17T23:30:01.953Z,0
2022-08-17T23:35:01.949Z,0
2022-08-17T23:40:01.999Z,0
2022-08-17T23:45:01.892Z,0
2022-08-17T23:50:02.192Z,0
2022-08-17T23:55:01.999Z,0
